DLH2FF EDDF-LIMC
Flight info
| Callsign | DLH2FF |
|---|---|
| Flight time | 1h 9m |
| Altitude | 31000 |
| Route | ANEKI2L/18 ANEKI Y163 HERBI/N0452F330 Y163 NATOR DCT DITON DCT BASGO Z424 RIXUV |
| Aircraft | A319/M-SDE3FGHIRWY/LB1 |
Departure
| Time | 2026-05-05 18:16 |
|---|---|
| Airport | Frankfurt Main Airport (EDDF) |
Arrival
| Time | 2026-05-05 19:25 |
|---|---|
| Airport | Milan Malpensa International Airport (LIMC) |
| Time | Latitude | Longitude | Altitude | Speed | Heading |
|---|---|---|---|---|---|
| 2026-05-05 17:40 | 50.04178 | 8.56130 | 353 ft | 0 kts | 160° |
| 2026-05-05 18:01 | 50.04175 | 8.56132 | 381 ft | 1 kts | 160° |
| 2026-05-05 18:02 | 50.04157 | 8.56142 | 355 ft | 3 kts | 160° |
| 2026-05-05 18:02 | 50.04129 | 8.56158 | 356 ft | 5 kts | 160° |
| 2026-05-05 18:02 | 50.04093 | 8.56139 | 359 ft | 7 kts | 243° |
| 2026-05-05 18:02 | 50.04073 | 8.56049 | 354 ft | 10 kts | 251° |
| 2026-05-05 18:03 | 50.04099 | 8.55966 | 352 ft | 9 kts | 339° |
| 2026-05-05 18:03 | 50.04161 | 8.55932 | 352 ft | 10 kts | 340° |
| 2026-05-05 18:03 | 50.04214 | 8.55877 | 354 ft | 9 kts | 297° |
| 2026-05-05 18:03 | 50.04201 | 8.55778 | 353 ft | 10 kts | 249° |
| 2026-05-05 18:04 | 50.04173 | 8.55664 | 355 ft | 13 kts | 249° |
| 2026-05-05 18:04 | 50.04138 | 8.55515 | 356 ft | 15 kts | 249° |
| 2026-05-05 18:04 | 50.04100 | 8.55357 | 355 ft | 16 kts | 249° |
| 2026-05-05 18:04 | 50.04064 | 8.55205 | 358 ft | 15 kts | 249° |
| 2026-05-05 18:05 | 50.04039 | 8.55101 | 353 ft | 7 kts | 249° |
| 2026-05-05 18:05 | 50.04030 | 8.55064 | 357 ft | 0 kts | 249° |
| 2026-05-05 18:05 | 50.04024 | 8.55042 | 353 ft | 4 kts | 250° |
| 2026-05-05 18:06 | 50.04006 | 8.54962 | 360 ft | 12 kts | 250° |
| 2026-05-05 18:06 | 50.03995 | 8.54918 | 353 ft | 13 kts | 250° |
| 2026-05-05 18:06 | 50.03925 | 8.54626 | 351 ft | 20 kts | 250° |
| 2026-05-05 18:06 | 50.03875 | 8.54416 | 352 ft | 20 kts | 249° |
| 2026-05-05 18:07 | 50.03816 | 8.54271 | 345 ft | 16 kts | 237° |
| 2026-05-05 18:07 | 50.03772 | 8.54105 | 350 ft | 17 kts | 250° |
| 2026-05-05 18:07 | 50.03728 | 8.53924 | 347 ft | 19 kts | 249° |
| 2026-05-05 18:07 | 50.03682 | 8.53730 | 342 ft | 20 kts | 249° |
| 2026-05-05 18:08 | 50.03631 | 8.53525 | 339 ft | 21 kts | 248° |
| 2026-05-05 18:08 | 50.03596 | 8.53383 | 339 ft | 21 kts | 249° |
| 2026-05-05 18:08 | 50.03542 | 8.53161 | 335 ft | 22 kts | 249° |
| 2026-05-05 18:08 | 50.03504 | 8.52997 | 336 ft | 11 kts | 249° |
| 2026-05-05 18:09 | 50.03481 | 8.52906 | 336 ft | 0 kts | 247° |
| 2026-05-05 18:09 | 50.03480 | 8.52903 | 336 ft | 1 kts | 247° |
| 2026-05-05 18:09 | 50.03475 | 8.52886 | 334 ft | 3 kts | 247° |
| 2026-05-05 18:10 | 50.03461 | 8.52835 | 337 ft | 7 kts | 246° |
| 2026-05-05 18:10 | 50.03452 | 8.52804 | 336 ft | 0 kts | 246° |
| 2026-05-05 18:12 | 50.03448 | 8.52789 | 333 ft | 4 kts | 246° |
| 2026-05-05 18:12 | 50.03433 | 8.52729 | 333 ft | 5 kts | 249° |
| 2026-05-05 18:13 | 50.03432 | 8.52725 | 334 ft | 0 kts | 249° |
| 2026-05-05 18:13 | 50.03432 | 8.52724 | 334 ft | 1 kts | 249° |
| 2026-05-05 18:13 | 50.03426 | 8.52698 | 333 ft | 3 kts | 249° |
| 2026-05-05 18:13 | 50.03417 | 8.52664 | 333 ft | 4 kts | 249° |
| 2026-05-05 18:14 | 50.03409 | 8.52608 | 336 ft | 7 kts | 262° |
| 2026-05-05 18:14 | 50.03383 | 8.52592 | 334 ft | 0 kts | 178° |
| 2026-05-05 18:15 | 50.03382 | 8.52592 | 333 ft | 1 kts | 178° |
| 2026-05-05 18:15 | 50.03243 | 8.52595 | 336 ft | 57 kts | 179° |
| 2026-05-05 18:15 | 50.02586 | 8.52602 | 336 ft | 129 kts | 179° |
| 2026-05-05 18:16 | 50.01530 | 8.52612 | 615 ft | 160 kts | 180° |
| 2026-05-05 18:16 | 50.00404 | 8.52647 | 1310 ft | 163 kts | 179° |
| 2026-05-05 18:16 | 49.99227 | 8.52724 | 1858 ft | 180 kts | 180° |
| 2026-05-05 18:16 | 49.97895 | 8.52811 | 2266 ft | 205 kts | 180° |
| 2026-05-05 18:17 | 49.96393 | 8.52908 | 2850 ft | 224 kts | 180° |
| 2026-05-05 18:17 | 49.94812 | 8.53015 | 3632 ft | 232 kts | 180° |
| 2026-05-05 18:17 | 49.93201 | 8.53128 | 3895 ft | 230 kts | 180° |
| 2026-05-05 18:17 | 49.91603 | 8.53241 | 3985 ft | 229 kts | 179° |
| 2026-05-05 18:18 | 49.90012 | 8.53354 | 3993 ft | 229 kts | 179° |
| 2026-05-05 18:18 | 49.88420 | 8.53465 | 3997 ft | 229 kts | 180° |
| 2026-05-05 18:18 | 49.86805 | 8.53575 | 4588 ft | 233 kts | 180° |
| 2026-05-05 18:18 | 49.85197 | 8.53684 | 5699 ft | 232 kts | 180° |
| 2026-05-05 18:19 | 49.83578 | 8.53793 | 6656 ft | 235 kts | 180° |
| 2026-05-05 18:19 | 49.81937 | 8.53900 | 7585 ft | 237 kts | 180° |
| 2026-05-05 18:19 | 49.80278 | 8.54006 | 8525 ft | 241 kts | 180° |
| 2026-05-05 18:19 | 49.78593 | 8.54115 | 9478 ft | 244 kts | 181° |
| 2026-05-05 18:20 | 49.76874 | 8.53987 | 10135 ft | 258 kts | 187° |
| 2026-05-05 18:20 | 49.75002 | 8.53745 | 10513 ft | 282 kts | 187° |
| 2026-05-05 18:20 | 49.72954 | 8.53531 | 10852 ft | 307 kts | 186° |
| 2026-05-05 18:20 | 49.70738 | 8.53328 | 11197 ft | 329 kts | 185° |
| 2026-05-05 18:21 | 49.68401 | 8.53133 | 11873 ft | 338 kts | 185° |
| 2026-05-05 18:21 | 49.66055 | 8.52946 | 12658 ft | 343 kts | 185° |
| 2026-05-05 18:21 | 49.63661 | 8.52753 | 13466 ft | 347 kts | 185° |
| 2026-05-05 18:21 | 49.61227 | 8.52552 | 14198 ft | 351 kts | 185° |
| 2026-05-05 18:22 | 49.58781 | 8.52344 | 14924 ft | 354 kts | 185° |
| 2026-05-05 18:22 | 49.56319 | 8.52133 | 15650 ft | 357 kts | 185° |
| 2026-05-05 18:22 | 49.53812 | 8.51915 | 16389 ft | 361 kts | 185° |
| 2026-05-05 18:22 | 49.51302 | 8.51696 | 17108 ft | 364 kts | 185° |
| 2026-05-05 18:23 | 49.48757 | 8.51475 | 17824 ft | 368 kts | 184° |
| 2026-05-05 18:23 | 49.46191 | 8.51254 | 18476 ft | 371 kts | 184° |
| 2026-05-05 18:23 | 49.43599 | 8.51031 | 19095 ft | 375 kts | 184° |
| 2026-05-05 18:23 | 49.40980 | 8.50804 | 19691 ft | 379 kts | 184° |
| 2026-05-05 18:24 | 49.38332 | 8.50576 | 20299 ft | 383 kts | 184° |
| 2026-05-05 18:24 | 49.35698 | 8.50349 | 20901 ft | 386 kts | 184° |
| 2026-05-05 18:24 | 49.33004 | 8.50119 | 21507 ft | 389 kts | 184° |
| 2026-05-05 18:24 | 49.30292 | 8.49889 | 22095 ft | 393 kts | 184° |
| 2026-05-05 18:25 | 49.27554 | 8.49651 | 22665 ft | 396 kts | 184° |
| 2026-05-05 18:25 | 49.25686 | 8.49487 | 23049 ft | 398 kts | 184° |
| 2026-05-05 18:25 | 49.22003 | 8.49165 | 23673 ft | 402 kts | 183° |
| 2026-05-05 18:25 | 49.19207 | 8.48924 | 23789 ft | 402 kts | 183° |
| 2026-05-05 18:26 | 49.16415 | 8.48688 | 23827 ft | 401 kts | 183° |
| 2026-05-05 18:26 | 49.13631 | 8.48455 | 23829 ft | 401 kts | 183° |
| 2026-05-05 18:26 | 49.10841 | 8.48219 | 23834 ft | 401 kts | 183° |
| 2026-05-05 18:26 | 49.08058 | 8.47982 | 23829 ft | 401 kts | 183° |
| 2026-05-05 18:27 | 49.05272 | 8.47743 | 23846 ft | 402 kts | 183° |
| 2026-05-05 18:27 | 49.02466 | 8.47504 | 24292 ft | 405 kts | 183° |
| 2026-05-05 18:27 | 48.99640 | 8.47265 | 24782 ft | 407 kts | 183° |
| 2026-05-05 18:27 | 48.96805 | 8.47020 | 25264 ft | 409 kts | 183° |
| 2026-05-05 18:28 | 48.91085 | 8.46536 | 26196 ft | 414 kts | 183° |
| 2026-05-05 18:28 | 48.88203 | 8.46293 | 26633 ft | 417 kts | 183° |
| 2026-05-05 18:28 | 48.85297 | 8.46043 | 27084 ft | 419 kts | 183° |
| 2026-05-05 18:29 | 48.82373 | 8.45792 | 27515 ft | 422 kts | 183° |
| 2026-05-05 18:29 | 48.79436 | 8.45543 | 27938 ft | 424 kts | 183° |
| 2026-05-05 18:29 | 48.76486 | 8.45296 | 28368 ft | 426 kts | 183° |
| 2026-05-05 18:29 | 48.73511 | 8.45051 | 28814 ft | 428 kts | 183° |
| 2026-05-05 18:30 | 48.70532 | 8.44805 | 29231 ft | 430 kts | 183° |
| 2026-05-05 18:30 | 48.67537 | 8.44556 | 29627 ft | 432 kts | 183° |
| 2026-05-05 18:30 | 48.64527 | 8.44307 | 29998 ft | 434 kts | 183° |
| 2026-05-05 18:30 | 48.61502 | 8.44056 | 30313 ft | 437 kts | 183° |
| 2026-05-05 18:31 | 48.58461 | 8.43803 | 30631 ft | 439 kts | 183° |
| 2026-05-05 18:31 | 48.55413 | 8.43547 | 31053 ft | 438 kts | 183° |
| 2026-05-05 18:31 | 48.52412 | 8.43294 | 31511 ft | 436 kts | 183° |
| 2026-05-05 18:31 | 48.49395 | 8.43040 | 31967 ft | 435 kts | 183° |
| 2026-05-05 18:32 | 48.46379 | 8.42786 | 32430 ft | 433 kts | 183° |
| 2026-05-05 18:32 | 48.43374 | 8.42534 | 32770 ft | 433 kts | 183° |
| 2026-05-05 18:32 | 48.37412 | 8.42036 | 32848 ft | 425 kts | 183° |
| 2026-05-05 18:33 | 48.31516 | 8.41551 | 32857 ft | 423 kts | 184° |
| 2026-05-05 18:33 | 48.25643 | 8.41066 | 32860 ft | 423 kts | 184° |
| 2026-05-05 18:34 | 48.19758 | 8.40585 | 32859 ft | 423 kts | 184° |
| 2026-05-05 18:34 | 48.13893 | 8.40099 | 32861 ft | 416 kts | 184° |
| 2026-05-05 18:35 | 48.11068 | 8.39868 | 32865 ft | 399 kts | 185° |
| 2026-05-05 18:35 | 48.08352 | 8.39650 | 32866 ft | 384 kts | 185° |
| 2026-05-05 18:35 | 48.03098 | 8.39217 | 32868 ft | 375 kts | 185° |
| 2026-05-05 18:36 | 47.97891 | 8.38786 | 32877 ft | 374 kts | 185° |
| 2026-05-05 18:36 | 47.92692 | 8.38360 | 32876 ft | 374 kts | 185° |
| 2026-05-05 18:37 | 47.87506 | 8.37941 | 32879 ft | 373 kts | 185° |
| 2026-05-05 18:37 | 47.82335 | 8.37531 | 32882 ft | 372 kts | 185° |
| 2026-05-05 18:38 | 47.77161 | 8.37110 | 32881 ft | 372 kts | 185° |
| 2026-05-05 18:38 | 47.71986 | 8.36691 | 32885 ft | 372 kts | 185° |
| 2026-05-05 18:39 | 47.66827 | 8.36276 | 32878 ft | 372 kts | 186° |
| 2026-05-05 18:39 | 47.61658 | 8.35852 | 32884 ft | 372 kts | 186° |
| 2026-05-05 18:40 | 47.56502 | 8.35431 | 32886 ft | 371 kts | 185° |
| 2026-05-05 18:40 | 47.51370 | 8.35017 | 32886 ft | 372 kts | 185° |
| 2026-05-05 18:41 | 47.46214 | 8.34606 | 32879 ft | 371 kts | 186° |
| 2026-05-05 18:41 | 47.41054 | 8.34207 | 32868 ft | 371 kts | 186° |
| 2026-05-05 18:42 | 47.35898 | 8.33792 | 32885 ft | 371 kts | 186° |
| 2026-05-05 18:42 | 47.30746 | 8.33395 | 32893 ft | 371 kts | 184° |
| 2026-05-05 18:43 | 47.25576 | 8.33974 | 32898 ft | 373 kts | 179° |
| 2026-05-05 18:43 | 47.20410 | 8.34691 | 32904 ft | 372 kts | 179° |
| 2026-05-05 18:44 | 47.15249 | 8.35389 | 32911 ft | 372 kts | 179° |
| 2026-05-05 18:44 | 47.10095 | 8.36093 | 32909 ft | 372 kts | 179° |
| 2026-05-05 18:45 | 47.04948 | 8.36795 | 32911 ft | 371 kts | 180° |
| 2026-05-05 18:45 | 46.99814 | 8.37491 | 32920 ft | 370 kts | 180° |
| 2026-05-05 18:46 | 46.94694 | 8.38183 | 32924 ft | 369 kts | 180° |
| 2026-05-05 18:46 | 46.89543 | 8.38876 | 32610 ft | 378 kts | 180° |
| 2026-05-05 18:47 | 46.86940 | 8.39227 | 32340 ft | 378 kts | 180° |
| 2026-05-05 18:47 | 46.84306 | 8.39587 | 32080 ft | 375 kts | 180° |
| 2026-05-05 18:47 | 46.81755 | 8.39939 | 31825 ft | 372 kts | 180° |
| 2026-05-05 18:47 | 46.79192 | 8.40292 | 31439 ft | 367 kts | 180° |
| 2026-05-05 18:48 | 46.76661 | 8.40635 | 31015 ft | 364 kts | 180° |
| 2026-05-05 18:48 | 46.74152 | 8.40972 | 30611 ft | 361 kts | 180° |
| 2026-05-05 18:48 | 46.71658 | 8.41308 | 30195 ft | 358 kts | 180° |
| 2026-05-05 18:48 | 46.69189 | 8.41641 | 29769 ft | 354 kts | 180° |
| 2026-05-05 18:49 | 46.66751 | 8.41970 | 29366 ft | 349 kts | 179° |
| 2026-05-05 18:49 | 46.64346 | 8.42295 | 29005 ft | 345 kts | 180° |
| 2026-05-05 18:49 | 46.61976 | 8.42613 | 28638 ft | 340 kts | 180° |
| 2026-05-05 18:49 | 46.59638 | 8.42927 | 28290 ft | 335 kts | 180° |
| 2026-05-05 18:50 | 46.57333 | 8.43237 | 27927 ft | 330 kts | 180° |
| 2026-05-05 18:50 | 46.55060 | 8.43542 | 27571 ft | 325 kts | 180° |
| 2026-05-05 18:50 | 46.52830 | 8.43839 | 27237 ft | 320 kts | 180° |
| 2026-05-05 18:50 | 46.50628 | 8.44132 | 26881 ft | 316 kts | 180° |
| 2026-05-05 18:51 | 46.48450 | 8.44421 | 26521 ft | 313 kts | 180° |
| 2026-05-05 18:51 | 46.46288 | 8.44706 | 26157 ft | 311 kts | 180° |
| 2026-05-05 18:51 | 46.44143 | 8.44987 | 25785 ft | 310 kts | 180° |
| 2026-05-05 18:51 | 46.42001 | 8.45270 | 25417 ft | 308 kts | 179° |
| 2026-05-05 18:52 | 46.39866 | 8.45552 | 25019 ft | 307 kts | 180° |
| 2026-05-05 18:52 | 46.37743 | 8.45836 | 24650 ft | 306 kts | 180° |
| 2026-05-05 18:52 | 46.35630 | 8.46118 | 24274 ft | 304 kts | 180° |
| 2026-05-05 18:52 | 46.33531 | 8.46398 | 23900 ft | 303 kts | 180° |
| 2026-05-05 18:53 | 46.31438 | 8.46677 | 23498 ft | 301 kts | 180° |
| 2026-05-05 18:53 | 46.29362 | 8.46954 | 23076 ft | 298 kts | 180° |
| 2026-05-05 18:53 | 46.27299 | 8.47231 | 22692 ft | 296 kts | 180° |
| 2026-05-05 18:53 | 46.25257 | 8.47513 | 22312 ft | 294 kts | 180° |
| 2026-05-05 18:54 | 46.23223 | 8.47804 | 21957 ft | 293 kts | 179° |
| 2026-05-05 18:54 | 46.21197 | 8.48098 | 21607 ft | 293 kts | 179° |
| 2026-05-05 18:54 | 46.19171 | 8.48392 | 21233 ft | 292 kts | 179° |
| 2026-05-05 18:54 | 46.17158 | 8.48682 | 20885 ft | 291 kts | 179° |
| 2026-05-05 18:55 | 46.15144 | 8.48968 | 20535 ft | 291 kts | 179° |
| 2026-05-05 18:55 | 46.13131 | 8.49251 | 20173 ft | 291 kts | 179° |
| 2026-05-05 18:55 | 46.11125 | 8.49625 | 19822 ft | 293 kts | 173° |
| 2026-05-05 18:55 | 46.09166 | 8.50514 | 19462 ft | 297 kts | 165° |
| 2026-05-05 18:56 | 46.07887 | 8.51213 | 19231 ft | 297 kts | 165° |
| 2026-05-05 18:56 | 46.05960 | 8.52260 | 18871 ft | 296 kts | 165° |
| 2026-05-05 18:56 | 46.04026 | 8.53307 | 18518 ft | 297 kts | 165° |
| 2026-05-05 18:56 | 46.02099 | 8.54349 | 18150 ft | 296 kts | 164° |
| 2026-05-05 18:57 | 46.00179 | 8.55385 | 17784 ft | 295 kts | 165° |
| 2026-05-05 18:57 | 45.98270 | 8.56407 | 17431 ft | 292 kts | 165° |
| 2026-05-05 18:57 | 45.96369 | 8.57422 | 17097 ft | 291 kts | 164° |
| 2026-05-05 18:57 | 45.94475 | 8.58433 | 16756 ft | 290 kts | 164° |
| 2026-05-05 18:58 | 45.92590 | 8.59443 | 16423 ft | 288 kts | 164° |
| 2026-05-05 18:58 | 45.90719 | 8.60474 | 16091 ft | 288 kts | 160° |
| 2026-05-05 18:58 | 45.88971 | 8.61900 | 15784 ft | 292 kts | 148° |
| 2026-05-05 18:58 | 45.87383 | 8.63726 | 15460 ft | 293 kts | 145° |
| 2026-05-05 18:59 | 45.85805 | 8.65567 | 15138 ft | 292 kts | 145° |
| 2026-05-05 18:59 | 45.84224 | 8.67401 | 14815 ft | 292 kts | 145° |
| 2026-05-05 18:59 | 45.82641 | 8.69230 | 14468 ft | 292 kts | 146° |
| 2026-05-05 18:59 | 45.81062 | 8.71049 | 14154 ft | 291 kts | 145° |
| 2026-05-05 19:00 | 45.79482 | 8.72872 | 13833 ft | 291 kts | 145° |
| 2026-05-05 19:00 | 45.77904 | 8.74694 | 13478 ft | 291 kts | 145° |
| 2026-05-05 19:00 | 45.76300 | 8.76453 | 13146 ft | 288 kts | 151° |
| 2026-05-05 19:00 | 45.74571 | 8.77835 | 12825 ft | 284 kts | 155° |
| 2026-05-05 19:01 | 45.72833 | 8.79167 | 12501 ft | 282 kts | 155° |
| 2026-05-05 19:01 | 45.71129 | 8.80483 | 12373 ft | 275 kts | 155° |
| 2026-05-05 19:01 | 45.69449 | 8.81781 | 12023 ft | 275 kts | 155° |
| 2026-05-05 19:01 | 45.67755 | 8.83083 | 11605 ft | 278 kts | 155° |
| 2026-05-05 19:02 | 45.66048 | 8.84393 | 11197 ft | 279 kts | 155° |
| 2026-05-05 19:02 | 45.64386 | 8.85671 | 11036 ft | 271 kts | 155° |
| 2026-05-05 19:02 | 45.62737 | 8.86938 | 10797 ft | 267 kts | 155° |
| 2026-05-05 19:02 | 45.61010 | 8.87896 | 10551 ft | 260 kts | 169° |
| 2026-05-05 19:03 | 45.59265 | 8.88377 | 10306 ft | 258 kts | 172° |
| 2026-05-05 19:03 | 45.57472 | 8.88859 | 10062 ft | 257 kts | 172° |
| 2026-05-05 19:03 | 45.55749 | 8.89325 | 9866 ft | 256 kts | 171° |
| 2026-05-05 19:03 | 45.54000 | 8.89802 | 9599 ft | 255 kts | 171° |
| 2026-05-05 19:04 | 45.52262 | 8.90273 | 9297 ft | 254 kts | 171° |
| 2026-05-05 19:04 | 45.50525 | 8.90742 | 8992 ft | 253 kts | 171° |
| 2026-05-05 19:04 | 45.48808 | 8.91207 | 8758 ft | 247 kts | 171° |
| 2026-05-05 19:04 | 45.47136 | 8.91662 | 8388 ft | 243 kts | 171° |
| 2026-05-05 19:05 | 45.45474 | 8.92113 | 7829 ft | 242 kts | 171° |
| 2026-05-05 19:05 | 45.43823 | 8.92563 | 7301 ft | 241 kts | 171° |
| 2026-05-05 19:05 | 45.42192 | 8.93006 | 6876 ft | 237 kts | 171° |
| 2026-05-05 19:05 | 45.40574 | 8.93447 | 6446 ft | 236 kts | 171° |
| 2026-05-05 19:06 | 45.38969 | 8.93886 | 6010 ft | 235 kts | 170° |
| 2026-05-05 19:06 | 45.37387 | 8.94318 | 5797 ft | 228 kts | 171° |
| 2026-05-05 19:06 | 45.35824 | 8.94742 | 5668 ft | 229 kts | 171° |
| 2026-05-05 19:06 | 45.34260 | 8.95167 | 5540 ft | 229 kts | 171° |
| 2026-05-05 19:07 | 45.32698 | 8.95592 | 5414 ft | 227 kts | 171° |
| 2026-05-05 19:07 | 45.31191 | 8.96003 | 5282 ft | 214 kts | 171° |
| 2026-05-05 19:07 | 45.29767 | 8.96387 | 5157 ft | 202 kts | 171° |
| 2026-05-05 19:07 | 45.28434 | 8.96749 | 5063 ft | 188 kts | 171° |
| 2026-05-05 19:08 | 45.27162 | 8.97093 | 5013 ft | 185 kts | 171° |
| 2026-05-05 19:08 | 45.25896 | 8.97435 | 5005 ft | 185 kts | 171° |
| 2026-05-05 19:08 | 45.24635 | 8.97774 | 5006 ft | 184 kts | 171° |
| 2026-05-05 19:08 | 45.23373 | 8.98115 | 5005 ft | 184 kts | 171° |
| 2026-05-05 19:09 | 45.22114 | 8.98456 | 5007 ft | 184 kts | 171° |
| 2026-05-05 19:09 | 45.20856 | 8.98794 | 5007 ft | 184 kts | 171° |
| 2026-05-05 19:09 | 45.19600 | 8.99129 | 5005 ft | 183 kts | 171° |
| 2026-05-05 19:09 | 45.18346 | 8.99464 | 5003 ft | 183 kts | 171° |
| 2026-05-05 19:10 | 45.17094 | 8.99800 | 5006 ft | 184 kts | 171° |
| 2026-05-05 19:10 | 45.15838 | 9.00137 | 5007 ft | 184 kts | 171° |
| 2026-05-05 19:10 | 45.14581 | 9.00472 | 5008 ft | 184 kts | 171° |
| 2026-05-05 19:10 | 45.13327 | 9.00809 | 4996 ft | 183 kts | 171° |
| 2026-05-05 19:11 | 45.12076 | 9.01146 | 5001 ft | 183 kts | 171° |
| 2026-05-05 19:11 | 45.10823 | 9.01483 | 4998 ft | 184 kts | 171° |
| 2026-05-05 19:11 | 45.09564 | 9.01820 | 4999 ft | 184 kts | 171° |
| 2026-05-05 19:11 | 45.08309 | 9.02146 | 4995 ft | 183 kts | 174° |
| 2026-05-05 19:12 | 45.07065 | 9.01914 | 4993 ft | 182 kts | 204° |
| 2026-05-05 19:12 | 45.06074 | 9.00821 | 4992 ft | 184 kts | 232° |
| 2026-05-05 19:12 | 45.05586 | 8.99145 | 5014 ft | 188 kts | 256° |
| 2026-05-05 19:12 | 45.05351 | 8.97319 | 5010 ft | 188 kts | 256° |
| 2026-05-05 19:13 | 45.05106 | 8.95502 | 5006 ft | 188 kts | 256° |
| 2026-05-05 19:13 | 45.04862 | 8.93684 | 5007 ft | 188 kts | 256° |
| 2026-05-05 19:13 | 45.04644 | 8.91860 | 5001 ft | 190 kts | 263° |
| 2026-05-05 19:13 | 45.04934 | 8.90029 | 5005 ft | 197 kts | 296° |
| 2026-05-05 19:14 | 45.05891 | 8.88629 | 5005 ft | 204 kts | 328° |
| 2026-05-05 19:14 | 45.07253 | 8.88053 | 5024 ft | 207 kts | 348° |
| 2026-05-05 19:14 | 45.08670 | 8.87683 | 5013 ft | 207 kts | 347° |
| 2026-05-05 19:14 | 45.10088 | 8.87304 | 5011 ft | 207 kts | 347° |
| 2026-05-05 19:15 | 45.11501 | 8.86921 | 5009 ft | 207 kts | 347° |
| 2026-05-05 19:15 | 45.12916 | 8.86538 | 5009 ft | 208 kts | 347° |
| 2026-05-05 19:15 | 45.14306 | 8.86161 | 5007 ft | 198 kts | 348° |
| 2026-05-05 19:15 | 45.15648 | 8.85798 | 5006 ft | 195 kts | 348° |
| 2026-05-05 19:16 | 45.16977 | 8.85438 | 5006 ft | 194 kts | 348° |
| 2026-05-05 19:16 | 45.18287 | 8.85082 | 5009 ft | 194 kts | 348° |
| 2026-05-05 19:16 | 45.19631 | 8.84716 | 5009 ft | 194 kts | 348° |
| 2026-05-05 19:16 | 45.20957 | 8.84357 | 5007 ft | 194 kts | 348° |
| 2026-05-05 19:17 | 45.22265 | 8.84002 | 5005 ft | 194 kts | 348° |
| 2026-05-05 19:17 | 45.23592 | 8.83641 | 5005 ft | 194 kts | 348° |
| 2026-05-05 19:17 | 45.24914 | 8.83282 | 5027 ft | 192 kts | 348° |
| 2026-05-05 19:17 | 45.26226 | 8.82924 | 5029 ft | 191 kts | 348° |
| 2026-05-05 19:18 | 45.27531 | 8.82568 | 5028 ft | 191 kts | 348° |
| 2026-05-05 19:18 | 45.28838 | 8.82211 | 5031 ft | 192 kts | 348° |
| 2026-05-05 19:18 | 45.30146 | 8.81854 | 5030 ft | 191 kts | 348° |
| 2026-05-05 19:18 | 45.31454 | 8.81498 | 5031 ft | 191 kts | 348° |
| 2026-05-05 19:19 | 45.32764 | 8.81151 | 5030 ft | 192 kts | 352° |
| 2026-05-05 19:19 | 45.34098 | 8.81117 | 5000 ft | 193 kts | 358° |
| 2026-05-05 19:19 | 45.35421 | 8.80896 | 5023 ft | 191 kts | 350° |
| 2026-05-05 19:19 | 45.36730 | 8.80566 | 5031 ft | 191 kts | 348° |
| 2026-05-05 19:20 | 45.38041 | 8.80214 | 5032 ft | 191 kts | 348° |
| 2026-05-05 19:20 | 45.39347 | 8.79858 | 5031 ft | 191 kts | 348° |
| 2026-05-05 19:20 | 45.40659 | 8.79500 | 4884 ft | 191 kts | 348° |
| 2026-05-05 19:20 | 45.41963 | 8.79142 | 4661 ft | 191 kts | 348° |
| 2026-05-05 19:21 | 45.43271 | 8.78784 | 4408 ft | 191 kts | 348° |
| 2026-05-05 19:21 | 45.44580 | 8.78425 | 4157 ft | 192 kts | 349° |
| 2026-05-05 19:21 | 45.45892 | 8.78065 | 3893 ft | 193 kts | 349° |
| 2026-05-05 19:21 | 45.47219 | 8.77701 | 3634 ft | 194 kts | 349° |
| 2026-05-05 19:22 | 45.48550 | 8.77336 | 3373 ft | 195 kts | 349° |
| 2026-05-05 19:22 | 45.49853 | 8.76977 | 3146 ft | 188 kts | 350° |
| 2026-05-05 19:22 | 45.51133 | 8.76626 | 2866 ft | 184 kts | 350° |
| 2026-05-05 19:22 | 45.52378 | 8.76283 | 2603 ft | 179 kts | 350° |
| 2026-05-05 19:23 | 45.53563 | 8.75957 | 2386 ft | 168 kts | 351° |
| 2026-05-05 19:23 | 45.54643 | 8.75659 | 2167 ft | 149 kts | 351° |
| 2026-05-05 19:23 | 45.55618 | 8.75390 | 1961 ft | 138 kts | 351° |
| 2026-05-05 19:23 | 45.56535 | 8.75136 | 1744 ft | 134 kts | 353° |
| 2026-05-05 19:24 | 45.57439 | 8.74894 | 1576 ft | 131 kts | 350° |
| 2026-05-05 19:24 | 45.58328 | 8.74648 | 1413 ft | 128 kts | 351° |
| 2026-05-05 19:24 | 45.59200 | 8.74410 | 1221 ft | 127 kts | 348° |
| 2026-05-05 19:24 | 45.60059 | 8.74171 | 1069 ft | 125 kts | 348° |
| 2026-05-05 19:25 | 45.60913 | 8.73936 | 903 ft | 124 kts | 348° |
| 2026-05-05 19:25 | 45.61758 | 8.73699 | 749 ft | 123 kts | 348° |
| 2026-05-05 19:25 | 45.62484 | 8.73500 | 742 ft | 83 kts | 349° |
| 2026-05-05 19:25 | 45.62897 | 8.73383 | 740 ft | 43 kts | 348° |
| 2026-05-05 19:26 | 45.63123 | 8.73267 | 741 ft | 29 kts | 325° |
| 2026-05-05 19:26 | 45.63261 | 8.73073 | 741 ft | 27 kts | 304° |
| 2026-05-05 19:26 | 45.63356 | 8.72869 | 740 ft | 18 kts | 303° |
| 2026-05-05 19:26 | 45.63407 | 8.72713 | 740 ft | 17 kts | 288° |
| 2026-05-05 19:27 | 45.63398 | 8.72543 | 741 ft | 18 kts | 259° |
| 2026-05-05 19:27 | 45.63373 | 8.72358 | 740 ft | 20 kts | 258° |
| 2026-05-05 19:27 | 45.63345 | 8.72158 | 739 ft | 21 kts | 261° |
| 2026-05-05 19:27 | 45.63324 | 8.72003 | 741 ft | 10 kts | 258° |
| 2026-05-05 19:28 | 45.63320 | 8.71976 | 741 ft | 0 kts | 258° |
| 2026-05-05 19:29 | 45.63320 | 8.71973 | 741 ft | 1 kts | 258° |
| 2026-05-05 19:29 | 45.63296 | 8.71963 | 741 ft | 6 kts | 174° |
| 2026-05-05 19:29 | 45.63237 | 8.71982 | 740 ft | 11 kts | 169° |
| 2026-05-05 19:30 | 45.63147 | 8.72005 | 741 ft | 14 kts | 169° |
| 2026-05-05 19:30 | 45.63046 | 8.72034 | 740 ft | 15 kts | 168° |
| 2026-05-05 19:30 | 45.62938 | 8.72064 | 740 ft | 16 kts | 169° |
| 2026-05-05 19:30 | 45.62824 | 8.72096 | 741 ft | 17 kts | 170° |
| 2026-05-05 19:31 | 45.62704 | 8.72127 | 740 ft | 18 kts | 168° |
| 2026-05-05 19:31 | 45.62579 | 8.72163 | 741 ft | 19 kts | 169° |
| 2026-05-05 19:31 | 45.62471 | 8.72193 | 740 ft | 11 kts | 170° |
| 2026-05-05 19:31 | 45.62401 | 8.72204 | 741 ft | 9 kts | 191° |
| 2026-05-05 19:32 | 45.62370 | 8.72134 | 741 ft | 9 kts | 263° |
| 2026-05-05 19:32 | 45.62356 | 8.72035 | 741 ft | 11 kts | 257° |
| 2026-05-05 19:32 | 45.62344 | 8.71934 | 741 ft | 10 kts | 276° |
| 2026-05-05 19:32 | 45.62403 | 8.71899 | 741 ft | 10 kts | 351° |
| 2026-05-05 19:33 | 45.62423 | 8.71897 | 741 ft | 1 kts | 7° |
| 2026-05-05 19:33 | 45.62431 | 8.71920 | 740 ft | 4 kts | 76° |
| 2026-05-05 19:33 | 45.62438 | 8.71976 | 741 ft | 7 kts | 79° |
| 2026-05-05 19:33 | 45.62441 | 8.72001 | 739 ft | 0 kts | 79° |